Relevés horaires Spa / La Sauveniere (Belgique)


Relevés horaires à Spa / La Sauveniere - Mercredi 12 Mai 2021
Heure UTC1 Température [°C] Vent [km/h] Hum. [%] Pres.4 [hPa] Visi. [Km] Nébu. [octa] Préc.5 [mm] Cond.
2m. Res. Ros. Dir.2 Vit. Moy. Raf.3
23:00 6.4 5.5 2.6 S 5.6 5.6 5.6 77 1011(-0.9/3h) 45 0/8 -- --
22:00 6.2 5.2 2.6 SSE 5.6 5.6 5.6 78 1011.3(-0.6/3h) 40 0/8 -- --
21:00 6.7 6.7 3.0 S 3.7 3.7 5.6 77 1011.7(0.0/3h) 40 0/8 -- --
20:00 7.7 7.7 2.8 S 3.7 3.7 3.7 71 1011.7(0.2/3h) 45 0/8 -- --
19:00 10.8 10.8 5.1 S 3.7 3.7 3.7 68 1010.9(0.1/3h) 35 0/8 -- --
18:00 12.2 12.2 3.7 SE 1.9 11.1 16.7 56 1010.6(0.1/3h) 40 8/8 0/12h
--
17:00 12.6 12.6 4.5 ONO 3.7 11.1 16.7 58 1010.5(-0.5/3h) 35 0/8 -- --
16:00 14.1 13.6 1.6 OSO 9.3 9.3 16.7 43 1010.2(-0.6/3h) 30 8/8 -- --
15:00 12.6 12.6 5.5 NNO 1.9 7.4 13.0 62 1010.6(-0.7/3h) 40 7/8 -- --
14:00 11.8 11.6 4.8 O 5.6 7.4 13.0 62 1011.2(-0.4/3h) 40 8/8 -- --
13:00 13.6 13.6 5.1 SO 3.7 5.6 9.3 56 1010.8(-0.7/3h) 35 0/8 -- --
12:00 12.2 12.1 5.2 O 5.6 7.4 9.3 62 1011.4(-0.7/3h) 40 0/8 0/6h
--
11:00 13.5 13.5 6.2 NNO 1.9 5.6 9.3 61 1011.2(-0.9/3h) 30 3/8 -- Ciel clair
10:00 11.0 11.0 6.0 NNO 1.9 5.6 7.4 71 1012.1(-0.4/3h) 40 8/8 -- --
09:00 10.4 10.4 6.3 O 3.7 5.6 9.3 76 1012.5(0.0/3h) 30 8/8 -- --
08:00 9.5 9.5 5.7 NNO 1.9 5.6 9.3 77 1013(0.4/3h) 30 7/8 -- --
07:00 9.4 9.4 5.9 O 3.7 3.7 7.4 79 1012.9(0.6/3h) 26 0/8 -- --
06:00 8.1 8.1 6.5 OSO 3.7 5.6 9.3 90 1013(0.5/3h) 26 8/8 0/12h
--
05:00 7.9 7.9 6.5 OSO 3.7 5.6 7.4 91 1012.9(0.2/3h) 29 8/8 -- --
04:00 8.0 8.0 6.6 OSO 3.7 5.6 9.3 91 1012.5(0.1/3h) 30 8/8 -- --
03:00 8.6 8.6 6.8 OSO 3.7 5.6 9.3 88 1012.4(0.1/3h) 40 8/8 -- --
02:00 9.0 9.0 7.7 O 3.7 3.7 7.4 92 1012.4(0.3/3h) 26 8/8 -- --
01:00 9.0 9.0 7.9 O 3.7 5.6 9.3 93 1012.4(0.2/3h) 30 8/8 -- --
00:00 9.3 8.8 8.1 O 5.6 7.4 11.1 92 1012.3(0.4/3h) 18 8/8 0/6h
0/24h
--

1 Coordinated Universal Time. Actuellement il est 13:00 locale et 11:00 UTC.

2 Le vent souffle depuis la direction indiquée vers la direction oposée.

3 Les rafales max. sont disponible 40 min après l'heure du relevé.

4 Pour les stations d'altitude (plus de 600m) le géopotentiel du niveau le plus proche de la pression obligatoire est indiqué.

5 Les stations disposant d'un diffuseur peuvent indiquer "trace". Cela signifie que des précipitations ont touchés le sol mais que la quantité est inférieure à 0.1 mm.

Récapitulatif de la journée
Température [°C] Vent [km/h] Ensoleillement4 [h] Precipitations totale5 [mm] Pression [Hpa]
Min1 Max.2 Moy.3 Max. Min Max.
7.8 14.5 6.1 16.7 0 h 0 min 0 1010.2 1013.0

1 Température minimale relevée entre 18:00 UTC la veille et 18:00 UTC le jour donné.

2 Température maximale relevée entre 06:00 UTC le jour donné et 06:00 UTC le lendemain.

3 Vent moyen de la journée basé sur les relevés horaires.

4 Ensoleillement en heures relevé entre 06:00 UTC la veille et 06:00 UTC le jour donné.

5 Précipitations totales tombées entre 06:00 UTC la jour donné et 06:00 UTC le lendemain.

Graphiques horaires